sensor_id;sensor_type;location;lat;lon;timestamp;pressure;altitude;pressure_sealevel;temperature;humidity
9474;BME280;8865;47.636;7.692;2023-02-15T00:00:22;99599.66;;;0.68;100.00
9474;BME280;8865;47.636;7.692;2023-02-15T00:02:48;99602.09;;;0.74;100.00
9474;BME280;8865;47.636;7.692;2023-02-15T00:05:14;99595.19;;;0.75;100.00
9474;BME280;8865;47.636;7.692;2023-02-15T00:07:40;99594.25;;;0.79;100.00
9474;BME280;8865;47.636;7.692;2023-02-15T00:10:07;99588.25;;;0.77;100.00
9474;BME280;8865;47.636;7.692;2023-02-15T00:12:34;99595.19;;;0.75;100.00
9474;BME280;8865;47.636;7.692;2023-02-15T00:15:00;99589.25;;;0.73;100.00
9474;BME280;8865;47.636;7.692;2023-02-15T00:17:28;99583.38;;;0.66;100.00
9474;BME280;8865;47.636;7.692;2023-02-15T00:19:54;99582.69;;;0.59;100.00
9474;BME280;8865;47.636;7.692;2023-02-15T00:22:20;99572.41;;;0.58;100.00
9474;BME280;8865;47.636;7.692;2023-02-15T00:24:46;99574.28;;;0.51;100.00
9474;BME280;8865;47.636;7.692;2023-02-15T00:27:12;99582.03;;;0.51;100.00
9474;BME280;8865;47.636;7.692;2023-02-15T00:29:38;99578.53;;;0.52;100.00
9474;BME280;8865;47.636;7.692;2023-02-15T00:32:04;99582.94;;;0.48;100.00
9474;BME280;8865;47.636;7.692;2023-02-15T00:34:30;99574.31;;;0.49;100.00
9474;BME280;8865;47.636;7.692;2023-02-15T00:36:56;99585.47;;;0.50;100.00
9474;BME280;8865;47.636;7.692;2023-02-15T00:39:22;99575.22;;;0.47;100.00
9474;BME280;8865;47.636;7.692;2023-02-15T00:41:49;99577.00;;;0.45;100.00
9474;BME280;8865;47.636;7.692;2023-02-15T00:44:15;99578.75;;;0.43;100.00
9474;BME280;8865;47.636;7.692;2023-02-15T00:46:42;99576.22;;;0.41;100.00
9474;BME280;8865;47.636;7.692;2023-02-15T00:49:08;99575.38;;;0.41;100.00
9474;BME280;8865;47.636;7.692;2023-02-15T00:51:34;99575.44;;;0.38;100.00
9474;BME280;8865;47.636;7.692;2023-02-15T00:54:00;99578.94;;;0.35;100.00
9474;BME280;8865;47.636;7.692;2023-02-15T00:56:26;99574.75;;;0.31;100.00
9474;BME280;8865;47.636;7.692;2023-02-15T00:58:54;99579.13;;;0.27;100.00
9474;BME280;8865;47.636;7.692;2023-02-15T01:01:20;99577.44;;;0.26;100.00
9474;BME280;8865;47.636;7.692;2023-02-15T01:03:47;99578.22;;;0.30;100.00
9474;BME280;8865;47.636;7.692;2023-02-15T01:06:15;99573.97;;;0.27;100.00
9474;BME280;8865;47.636;7.692;2023-02-15T01:08:42;99577.69;;;0.15;100.00
9474;BME280;8865;47.636;7.692;2023-02-15T01:11:11;99578.38;;;0.22;100.00
9474;BME280;8865;47.636;7.692;2023-02-15T01:13:38;99572.44;;;0.20;100.00
9474;BME280;8865;47.636;7.692;2023-02-15T01:16:04;99569.91;;;0.17;100.00
9474;BME280;8865;47.636;7.692;2023-02-15T01:18:33;99575.22;;;0.11;100.00
9474;BME280;8865;47.636;7.692;2023-02-15T01:21:00;99582.88;;;0.14;100.00
9474;BME280;8865;47.636;7.692;2023-02-15T01:23:26;99584.50;;;0.16;100.00
9474;BME280;8865;47.636;7.692;2023-02-15T01:25:52;99579.34;;;0.16;100.00
9474;BME280;8865;47.636;7.692;2023-02-15T01:28:18;99577.69;;;0.15;100.00
9474;BME280;8865;47.636;7.692;2023-02-15T01:30:44;99586.31;;;0.13;100.00
9474;BME280;8865;47.636;7.692;2023-02-15T01:33:10;99585.44;;;0.14;100.00
9474;BME280;8865;47.636;7.692;2023-02-15T01:35:46;99592.22;;;0.16;100.00
9474;BME280;8865;47.636;7.692;2023-02-15T01:38:13;99584.47;;;0.18;100.00
9474;BME280;8865;47.636;7.692;2023-02-15T01:40:39;99585.41;;;0.15;100.00
9474;BME280;8865;47.636;7.692;2023-02-15T01:43:10;99588.06;;;0.12;100.00
9474;BME280;8865;47.636;7.692;2023-02-15T01:45:37;99586.25;;;0.16;100.00
9474;BME280;8865;47.636;7.692;2023-02-15T01:48:13;99574.31;;;0.12;100.00
9474;BME280;8865;47.636;7.692;2023-02-15T01:50:47;99576.91;;;0.10;100.00
9474;BME280;8865;47.636;7.692;2023-02-15T01:53:20;99575.31;;;0.06;100.00
9474;BME280;8865;47.636;7.692;2023-02-15T01:55:59;99577.84;;;0.08;100.00
9474;BME280;8865;47.636;7.692;2023-02-15T01:58:29;99570.06;;;0.11;100.00
9474;BME280;8865;47.636;7.692;2023-02-15T02:00:58;99572.56;;;0.14;100.00
9474;BME280;8865;47.636;7.692;2023-02-15T02:06:39;99579.31;;;0.18;100.00
9474;BME280;8865;47.636;7.692;2023-02-15T02:09:05;99574.19;;;0.16;100.00
9474;BME280;8865;47.636;7.692;2023-02-15T02:11:32;99574.31;;;0.12;100.00
9474;BME280;8865;47.636;7.692;2023-02-15T02:13:58;99568.34;;;0.10;100.00
9474;BME280;8865;47.636;7.692;2023-02-15T02:27:37;99560.00;;;0.00;100.00
9474;BME280;8865;47.636;7.692;2023-02-15T02:33:28;99556.66;;;-0.05;100.00
9474;BME280;8865;47.636;7.692;2023-02-15T02:36:20;99547.38;;;-0.14;100.00
9474;BME280;8865;47.636;7.692;2023-02-15T02:41:31;99553.63;;;-0.24;100.00
9474;BME280;8865;47.636;7.692;2023-02-15T02:49:34;99558.78;;;-0.24;100.00
9474;BME280;8865;47.636;7.692;2023-02-15T02:52:03;99555.38;;;-0.26;100.00
9474;BME280;8865;47.636;7.692;2023-02-15T02:54:30;99551.19;;;-0.30;100.00
9474;BME280;8865;47.636;7.692;2023-02-15T02:56:59;99556.31;;;-0.29;100.00
9474;BME280;8865;47.636;7.692;2023-02-15T02:59:32;99548.50;;;-0.26;100.00
9474;BME280;8865;47.636;7.692;2023-02-15T03:02:27;99549.34;;;-0.25;100.00
9474;BME280;8865;47.636;7.692;2023-02-15T03:05:02;99551.09;;;-0.26;100.00
9474;BME280;8865;47.636;7.692;2023-02-15T03:07:33;99554.44;;;-0.22;100.00
9474;BME280;8865;47.636;7.692;2023-02-15T03:10:03;99554.47;;;-0.24;100.00
9474;BME280;8865;47.636;7.692;2023-02-15T03:12:36;99551.81;;;-0.21;100.00
9474;BME280;8865;47.636;7.692;2023-02-15T03:15:29;99555.31;;;-0.23;100.00
9474;BME280;8865;47.636;7.692;2023-02-15T03:18:18;99551.91;;;-0.24;100.00
9474;BME280;8865;47.636;7.692;2023-02-15T03:20:46;99556.28;;;-0.27;100.00
9474;BME280;8865;47.636;7.692;2023-02-15T03:23:17;99563.19;;;-0.31;100.00
9474;BME280;8865;47.636;7.692;2023-02-15T03:25:52;99557.31;;;-0.38;100.00
9474;BME280;8865;47.636;7.692;2023-02-15T03:28:28;99555.69;;;-0.42;100.00
9474;BME280;8865;47.636;7.692;2023-02-15T03:30:57;99552.22;;;-0.39;100.00
9474;BME280;8865;47.636;7.692;2023-02-15T03:33:26;99553.91;;;-0.38;100.00
9474;BME280;8865;47.636;7.692;2023-02-15T03:36:09;99551.44;;;-0.43;100.00
9474;BME280;8865;47.636;7.692;2023-02-15T03:38:44;99542.19;;;-0.53;100.00
9474;BME280;8865;47.636;7.692;2023-02-15T03:41:16;99550.66;;;-0.48;100.00
9474;BME280;8865;47.636;7.692;2023-02-15T03:43:51;99554.16;;;-0.50;100.00
9474;BME280;8865;47.636;7.692;2023-02-15T03:46:25;99551.63;;;-0.52;100.00
9474;BME280;8865;47.636;7.692;2023-02-15T03:48:56;99555.03;;;-0.51;100.00
9474;BME280;8865;47.636;7.692;2023-02-15T03:51:28;99560.22;;;-0.53;100.00
9474;BME280;8865;47.636;7.692;2023-02-15T03:54:11;99557.66;;;-0.55;100.00
9474;BME280;8865;47.636;7.692;2023-02-15T03:56:41;99551.63;;;-0.52;100.00
9474;BME280;8865;47.636;7.692;2023-02-15T03:59:07;99550.09;;;-0.62;100.00
9474;BME280;8865;47.636;7.692;2023-02-15T04:02:03;99560.41;;;-0.62;100.00
9474;BME280;8865;47.636;7.692;2023-02-15T04:04:37;99560.47;;;-0.67;100.00
9474;BME280;8865;47.636;7.692;2023-02-15T04:07:05;99557.06;;;-0.67;100.00
9474;BME280;8865;47.636;7.692;2023-02-15T04:09:32;99557.91;;;-0.67;100.00
9474;BME280;8865;47.636;7.692;2023-02-15T04:12:17;99546.78;;;-0.67;100.00
9474;BME280;8865;47.636;7.692;2023-02-15T04:14:43;99549.50;;;-0.75;100.00
9474;BME280;8865;47.636;7.692;2023-02-15T04:17:27;99555.50;;;-0.76;100.00
9474;BME280;8865;47.636;7.692;2023-02-15T04:19:54;99563.16;;;-0.73;100.00
9474;BME280;8865;47.636;7.692;2023-02-15T04:22:38;99566.63;;;-0.74;100.00
9474;BME280;8865;47.636;7.692;2023-02-15T04:25:23;99564.06;;;-0.76;100.00
9474;BME280;8865;47.636;7.692;2023-02-15T04:27:50;99570.03;;;-0.72;100.00
9474;BME280;8865;47.636;7.692;2023-02-15T04:30:19;99572.53;;;-0.69;100.00
9474;BME280;8865;47.636;7.692;2023-02-15T04:32:46;99563.91;;;-0.66;100.00
9474;BME280;8865;47.636;7.692;2023-02-15T04:35:12;99564.75;;;-0.66;100.00
9474;BME280;8865;47.636;7.692;2023-02-15T04:37:39;99565.72;;;-0.72;100.00
9474;BME280;8865;47.636;7.692;2023-02-15T04:40:06;99564.81;;;-0.69;100.00
9474;BME280;8865;47.636;7.692;2023-02-15T04:42:33;99569.19;;;-0.74;100.00
9474;BME280;8865;47.636;7.692;2023-02-15T04:44:59;99567.44;;;-0.72;100.00
9474;BME280;8865;47.636;7.692;2023-02-15T04:47:25;99568.22;;;-0.68;100.00
9474;BME280;8865;47.636;7.692;2023-02-15T04:49:51;99565.66;;;-0.68;100.00
9474;BME280;8865;47.636;7.692;2023-02-15T04:52:17;99565.66;;;-0.68;100.00
9474;BME280;8865;47.636;7.692;2023-02-15T04:54:44;99564.81;;;-0.69;100.00
9474;BME280;8865;47.636;7.692;2023-02-15T04:57:10;99563.03;;;-0.65;100.00
9474;BME280;8865;47.636;7.692;2023-02-15T04:59:36;99572.50;;;-0.67;100.00
9474;BME280;8865;47.636;7.692;2023-02-15T05:02:02;99558.09;;;-0.76;100.00
9474;BME280;8865;47.636;7.692;2023-02-15T05:04:28;99563.13;;;-0.70;100.00
9474;BME280;8865;47.636;7.692;2023-02-15T05:06:55;99558.88;;;-0.73;100.00
9474;BME280;8865;47.636;7.692;2023-02-15T05:09:20;99559.75;;;-0.74;100.00
9474;BME280;8865;47.636;7.692;2023-02-15T05:11:46;99557.16;;;-0.72;100.00
9474;BME280;8865;47.636;7.692;2023-02-15T05:14:12;99559.78;;;-0.75;100.00
9474;BME280;8865;47.636;7.692;2023-02-15T05:16:38;99555.50;;;-0.76;100.00
9474;BME280;8865;47.636;7.692;2023-02-15T05:19:05;99558.94;;;-0.77;100.00
9474;BME280;8865;47.636;7.692;2023-02-15T05:21:31;99561.59;;;-0.80;100.00
9474;BME280;8865;47.636;7.692;2023-02-15T05:23:57;99568.34;;;-0.75;100.00
9474;BME280;8865;47.636;7.692;2023-02-15T05:26:24;99565.03;;;-0.80;100.00
9474;BME280;8865;47.636;7.692;2023-02-15T05:29:09;99562.50;;;-0.83;100.00
9474;BME280;8865;47.636;7.692;2023-02-15T05:31:36;99559.13;;;-0.86;100.00
9474;BME280;8865;47.636;7.692;2023-02-15T05:34:03;99571.16;;;-0.87;100.00
9474;BME280;8865;47.636;7.692;2023-02-15T05:36:29;99564.22;;;-0.83;100.00
9474;BME280;8865;47.636;7.692;2023-02-15T05:38:55;99571.88;;;-0.80;100.00
9474;BME280;8865;47.636;7.692;2023-02-15T05:41:21;99568.59;;;-0.88;100.00
9474;BME280;8865;47.636;7.692;2023-02-15T05:43:47;99572.84;;;-0.86;100.00
9474;BME280;8865;47.636;7.692;2023-02-15T05:46:13;99570.28;;;-0.86;100.00
9474;BME280;8865;47.636;7.692;2023-02-15T05:48:39;99576.19;;;-0.81;100.00
9474;BME280;8865;47.636;7.692;2023-02-15T05:51:11;99575.28;;;-0.78;100.00
9474;BME280;8865;47.636;7.692;2023-02-15T05:53:41;99579.56;;;-0.79;100.00
9474;BME280;8865;47.636;7.692;2023-02-15T05:56:09;99584.69;;;-0.79;100.00
9474;BME280;8865;47.636;7.692;2023-02-15T05:58:38;99576.22;;;-0.82;100.00
9474;BME280;8865;47.636;7.692;2023-02-15T06:01:11;99586.53;;;-0.84;100.00
9474;BME280;8865;47.636;7.692;2023-02-15T06:03:38;99590.84;;;-0.84;100.00
9474;BME280;8865;47.636;7.692;2023-02-15T06:06:04;99587.28;;;-0.79;100.00
9474;BME280;8865;47.636;7.692;2023-02-15T06:08:32;99583.09;;;-0.83;100.00
9474;BME280;8865;47.636;7.692;2023-02-15T06:10:58;99582.16;;;-0.80;100.00
9474;BME280;8865;47.636;7.692;2023-02-15T06:13:24;99580.69;;;-0.92;100.00
9474;BME280;8865;47.636;7.692;2023-02-15T06:15:50;99587.38;;;-0.85;100.00
9474;BME280;8865;47.636;7.692;2023-02-15T06:18:16;99584.03;;;-0.88;100.00
9474;BME280;8865;47.636;7.692;2023-02-15T06:20:42;99586.50;;;-0.82;100.00
9474;BME280;8865;47.636;7.692;2023-02-15T06:23:08;99588.13;;;-0.77;100.00
9474;BME280;8865;47.636;7.692;2023-02-15T06:25:34;99588.94;;;-0.75;100.00
9474;BME280;8865;47.636;7.692;2023-02-15T06:27:59;99588.94;;;-0.75;100.00
9474;BME280;8865;47.636;7.692;2023-02-15T06:30:25;99591.56;;;-0.78;100.00
9474;BME280;8865;47.636;7.692;2023-02-15T06:32:51;99593.22;;;-0.75;100.00
9474;BME280;8865;47.636;7.692;2023-02-15T06:35:17;99589.78;;;-0.76;100.00
9474;BME280;8865;47.636;7.692;2023-02-15T06:37:45;99588.88;;;-0.72;100.00
9474;BME280;8865;47.636;7.692;2023-02-15T06:40:11;99594.88;;;-0.73;100.00
9474;BME280;8865;47.636;7.692;2023-02-15T06:42:37;99600.88;;;-0.70;100.00
9474;BME280;8865;47.636;7.692;2023-02-15T06:45:04;99598.25;;;-0.67;100.00
9474;BME280;8865;47.636;7.692;2023-02-15T06:47:30;99603.34;;;-0.64;100.00
9474;BME280;8865;47.636;7.692;2023-02-15T06:49:56;99607.59;;;-0.65;100.00
9474;BME280;8865;47.636;7.692;2023-02-15T06:52:23;99604.97;;;-0.62;100.00
9474;BME280;8865;47.636;7.692;2023-02-15T06:54:50;99609.28;;;-0.62;100.00
9474;BME280;8865;47.636;7.692;2023-02-15T06:57:16;99608.22;;;-0.50;100.00
9474;BME280;8865;47.636;7.692;2023-02-15T06:59:42;99605.56;;;-0.46;100.00
9474;BME280;8865;47.636;7.692;2023-02-15T07:02:10;99604.59;;;-0.42;100.00
9474;BME280;8865;47.636;7.692;2023-02-15T07:04:36;99607.09;;;-0.39;100.00
9474;BME280;8865;47.636;7.692;2023-02-15T07:07:03;99605.34;;;-0.35;100.00
9474;BME280;8865;47.636;7.692;2023-02-15T07:09:29;99610.56;;;-0.38;100.00
9474;BME280;8865;47.636;7.692;2023-02-15T07:11:55;99607.09;;;-0.39;100.00
9474;BME280;8865;47.636;7.692;2023-02-15T07:14:39;99606.28;;;-0.41;100.00
9474;BME280;8865;47.636;7.692;2023-02-15T07:17:06;99606.19;;;-0.34;100.00
9474;BME280;8865;47.636;7.692;2023-02-15T07:19:32;99601.78;;;-0.29;100.00
9474;BME280;8865;47.636;7.692;2023-02-15T07:21:58;99605.31;;;-0.33;100.00
9474;BME280;8865;47.636;7.692;2023-02-15T07:24:25;99600.78;;;-0.22;100.00
9474;BME280;8865;47.636;7.692;2023-02-15T07:26:51;99599.91;;;-0.21;100.00
9474;BME280;8865;47.636;7.692;2023-02-15T07:29:17;99593.94;;;-0.23;100.00
9474;BME280;8865;47.636;7.692;2023-02-15T07:31:43;99593.84;;;-0.20;100.00
9474;BME280;8865;47.636;7.692;2023-02-15T07:34:11;99592.84;;;-0.11;100.00
9474;BME280;8865;47.636;7.692;2023-02-15T07:36:37;99595.47;;;-0.14;100.00
9474;BME280;8865;47.636;7.692;2023-02-15T07:39:03;99600.44;;;-0.05;100.00
9474;BME280;8865;47.636;7.692;2023-02-15T07:41:29;99591.59;;;0.07;100.00
9474;BME280;8865;47.636;7.692;2023-02-15T07:43:55;99593.06;;;0.19;100.00
9474;BME280;8865;47.636;7.692;2023-02-15T07:46:21;99593.66;;;0.30;100.00
9474;BME280;8865;47.636;7.692;2023-02-15T07:48:47;99594.56;;;0.27;100.00
9474;BME280;8865;47.636;7.692;2023-02-15T07:51:14;99591.91;;;0.32;100.00
9474;BME280;8865;47.636;7.692;2023-02-15T07:53:40;99590.16;;;0.34;100.00
9474;BME280;8865;47.636;7.692;2023-02-15T07:56:10;99587.41;;;0.42;100.00
9474;BME280;8865;47.636;7.692;2023-02-15T07:58:36;99581.41;;;0.40;100.00
9474;BME280;8865;47.636;7.692;2023-02-15T08:03:46;99590.13;;;0.71;100.00
9474;BME280;8865;47.636;7.692;2023-02-15T08:06:12;99588.06;;;0.84;100.00
9474;BME280;8865;47.636;7.692;2023-02-15T08:08:39;99588.72;;;0.94;100.00
9474;BME280;8865;47.636;7.692;2023-02-15T08:19:19;99572.81;;;1.42;100.00
9474;BME280;8865;47.636;7.692;2023-02-15T08:21:51;99570.47;;;1.65;100.00
9474;BME280;8865;47.636;7.692;2023-02-15T08:24:19;99569.25;;;1.76;100.00
9474;BME280;8865;47.636;7.692;2023-02-15T08:26:47;99565.44;;;1.90;100.00
9474;BME280;8865;47.636;7.692;2023-02-15T08:29:15;99573.72;;;2.01;100.00
9474;BME280;8865;47.636;7.692;2023-02-15T08:31:42;99571.53;;;2.17;100.00
9474;BME280;8865;47.636;7.692;2023-02-15T08:34:10;99562.50;;;2.30;100.00
9474;BME280;8865;47.636;7.692;2023-02-15T08:36:37;99559.78;;;2.35;100.00
9474;BME280;8865;47.636;7.692;2023-02-15T08:39:05;99561.47;;;2.63;100.00
9474;BME280;8865;47.636;7.692;2023-02-15T08:41:35;99553.25;;;2.77;100.00
9474;BME280;8865;47.636;7.692;2023-02-15T08:44:06;99554.22;;;3.25;100.00
9474;BME280;8865;47.636;7.692;2023-02-15T08:46:35;99547.81;;;3.82;100.00
9474;BME280;8865;47.636;7.692;2023-02-15T08:49:02;99543.25;;;4.55;100.00
9474;BME280;8865;47.636;7.692;2023-02-15T08:51:30;99541.84;;;5.49;100.00
9474;BME280;8865;47.636;7.692;2023-02-15T08:53:59;99527.31;;;6.58;100.00
9474;BME280;8865;47.636;7.692;2023-02-15T08:56:28;99527.16;;;7.29;100.00
9474;BME280;8865;47.636;7.692;2023-02-15T08:58:55;99523.59;;;8.90;100.00
9474;BME280;8865;47.636;7.692;2023-02-15T09:01:26;99514.09;;;10.84;87.38
9474;BME280;8865;47.636;7.692;2023-02-15T09:03:58;99506.91;;;12.73;69.80
9474;BME280;8865;47.636;7.692;2023-02-15T09:06:24;99507.97;;;14.29;57.97
9474;BME280;8865;47.636;7.692;2023-02-15T09:08:51;99506.56;;;15.21;52.00
9474;BME280;8865;47.636;7.692;2023-02-15T09:11:23;99506.38;;;16.34;47.19
9474;BME280;8865;47.636;7.692;2023-02-15T09:13:52;99502.16;;;16.90;43.90
9474;BME280;8865;47.636;7.692;2023-02-15T09:16:20;99494.34;;;18.01;41.59
9474;BME280;8865;47.636;7.692;2023-02-15T09:18:47;99487.19;;;18.92;38.70
9474;BME280;8865;47.636;7.692;2023-02-15T09:21:15;99495.19;;;20.04;36.42
9474;BME280;8865;47.636;7.692;2023-02-15T09:23:43;99488.44;;;20.59;34.07
9474;BME280;8865;47.636;7.692;2023-02-15T09:26:15;99481.13;;;21.58;32.42
9474;BME280;8865;47.636;7.692;2023-02-15T09:28:41;99478.56;;;21.96;31.43
9474;BME280;8865;47.636;7.692;2023-02-15T09:33:39;99482.72;;;23.66;28.70
9474;BME280;8865;47.636;7.692;2023-02-15T09:36:14;99474.28;;;24.20;26.89
9474;BME280;8865;47.636;7.692;2023-02-15T09:38:40;99475.91;;;24.36;26.29
9474;BME280;8865;47.636;7.692;2023-02-15T10:10:25;99455.13;;;29.05;20.27
9474;BME280;8865;47.636;7.692;2023-02-15T10:15:53;99451.13;;;30.24;18.88
9474;BME280;8865;47.636;7.692;2023-02-15T10:26:46;99433.69;;;31.62;17.67
9474;BME280;8865;47.636;7.692;2023-02-15T10:29:37;99432.56;;;32.20;17.29
9474;BME280;8865;47.636;7.692;2023-02-15T10:32:24;99432.78;;;32.02;17.30
9474;BME280;8865;47.636;7.692;2023-02-15T10:40:25;99428.28;;;34.13;15.53
9474;BME280;8865;47.636;7.692;2023-02-15T10:55:52;99405.81;;;34.61;15.25
9474;BME280;8865;47.636;7.692;2023-02-15T11:06:51;99381.03;;;35.15;14.42
9474;BME280;8865;47.636;7.692;2023-02-15T11:09:21;99375.81;;;34.98;14.48
9474;BME280;8865;47.636;7.692;2023-02-15T11:11:51;99382.63;;;35.01;14.71
9474;BME280;8865;47.636;7.692;2023-02-15T11:17:04;99367.22;;;34.74;14.43
9474;BME280;8865;47.636;7.692;2023-02-15T11:19:35;99359.97;;;34.05;15.40
9474;BME280;8865;47.636;7.692;2023-02-15T11:22:06;99356.41;;;34.79;14.58
9474;BME280;8865;47.636;7.692;2023-02-15T11:24:39;99349.03;;;35.48;14.25
9474;BME280;8865;47.636;7.692;2023-02-15T11:32:43;99344.97;;;36.07;13.81
9474;BME280;8865;47.636;7.692;2023-02-15T11:35:17;99342.41;;;36.68;13.57
9474;BME280;8865;47.636;7.692;2023-02-15T11:37:49;99337.59;;;36.28;14.04
9474;BME280;8865;47.636;7.692;2023-02-15T11:40:24;99330.22;;;36.29;13.52
9474;BME280;8865;47.636;7.692;2023-02-15T11:42:53;99323.91;;;36.54;13.66
9474;BME280;8865;47.636;7.692;2023-02-15T11:45:30;99326.63;;;36.49;13.68
9474;BME280;8865;47.636;7.692;2023-02-15T11:47:58;99331.97;;;36.90;13.17
9474;BME280;8865;47.636;7.692;2023-02-15T11:50:29;99328.94;;;36.97;13.57
9474;BME280;8865;47.636;7.692;2023-02-15T11:53:00;99325.06;;;37.53;12.93
9474;BME280;8865;47.636;7.692;2023-02-15T11:55:28;99316.19;;;37.32;13.00
9474;BME280;8865;47.636;7.692;2023-02-15T11:57:57;99317.50;;;37.40;13.14
9474;BME280;8865;47.636;7.692;2023-02-15T12:00:33;99313.91;;;37.44;12.91
9474;BME280;8865;47.636;7.692;2023-02-15T12:03:22;99304.91;;;37.44;12.81
9474;BME280;8865;47.636;7.692;2023-02-15T12:05:55;99300.44;;;37.93;13.09
9474;BME280;8865;47.636;7.692;2023-02-15T12:08:23;99298.00;;;38.45;12.23
9474;BME280;8865;47.636;7.692;2023-02-15T12:11:12;99291.34;;;38.27;12.43
9474;BME280;8865;47.636;7.692;2023-02-15T12:13:55;99279.41;;;38.17;11.80
9474;BME280;8865;47.636;7.692;2023-02-15T12:16:22;99278.25;;;37.94;12.54
9474;BME280;8865;47.636;7.692;2023-02-15T12:18:48;99279.53;;;38.31;11.88
9474;BME280;8865;47.636;7.692;2023-02-15T12:21:30;99276.31;;;38.91;11.75
9474;BME280;8865;47.636;7.692;2023-02-15T12:24:01;99269.84;;;38.39;12.19
9474;BME280;8865;47.636;7.692;2023-02-15T12:26:34;99266.56;;;39.04;12.25
9474;BME280;8865;47.636;7.692;2023-02-15T12:29:07;99266.69;;;38.75;11.63
9474;BME280;8865;47.636;7.692;2023-02-15T12:31:44;99262.16;;;38.84;11.82
9474;BME280;8865;47.636;7.692;2023-02-15T12:34:40;99250.91;;;38.86;11.19
9474;BME280;8865;47.636;7.692;2023-02-15T12:37:14;99253.84;;;39.14;11.67
9474;BME280;8865;47.636;7.692;2023-02-15T12:39:58;99256.59;;;39.14;11.61
9474;BME280;8865;47.636;7.692;2023-02-15T12:42:26;99249.06;;;38.81;11.92
9474;BME280;8865;47.636;7.692;2023-02-15T12:45:00;99247.22;;;38.76;11.93
9474;BME280;8865;47.636;7.692;2023-02-15T12:47:28;99240.56;;;38.83;11.58
9474;BME280;8865;47.636;7.692;2023-02-15T12:50:16;99238.97;;;39.20;11.85
9474;BME280;8865;47.636;7.692;2023-02-15T12:52:48;99231.75;;;39.24;11.52
9474;BME280;8865;47.636;7.692;2023-02-15T12:55:26;99229.38;;;39.50;11.29
9474;BME280;8865;47.636;7.692;2023-02-15T12:58:20;99227.75;;;39.16;11.48
9474;BME280;8865;47.636;7.692;2023-02-15T13:00:47;99228.06;;;39.15;11.47
9474;BME280;8865;47.636;7.692;2023-02-15T13:03:19;99231.06;;;38.75;11.87
9474;BME280;8865;47.636;7.692;2023-02-15T13:05:48;99222.47;;;38.63;12.07
9474;BME280;8865;47.636;7.692;2023-02-15T13:08:22;99222.41;;;39.25;11.65
9474;BME280;8865;47.636;7.692;2023-02-15T13:11:10;99221.22;;;39.64;11.24
9474;BME280;8865;47.636;7.692;2023-02-15T13:14:00;99220.13;;;39.65;11.14
9474;BME280;8865;47.636;7.692;2023-02-15T13:16:32;99211.41;;;39.44;11.87
9474;BME280;8865;47.636;7.692;2023-02-15T13:19:08;99206.94;;;39.48;11.45
9474;BME280;8865;47.636;7.692;2023-02-15T13:21:40;99199.88;;;39.61;11.07
9474;BME280;8865;47.636;7.692;2023-02-15T13:24:22;99201.97;;;39.97;11.10
9474;BME280;8865;47.636;7.692;2023-02-15T13:26:50;99188.56;;;39.95;10.77
9474;BME280;8865;47.636;7.692;2023-02-15T13:29:23;99187.34;;;40.15;10.58
9474;BME280;8865;47.636;7.692;2023-02-15T13:31:51;99185.50;;;40.39;10.53
9474;BME280;8865;47.636;7.692;2023-02-15T13:34:36;99186.91;;;40.50;10.53
9474;BME280;8865;47.636;7.692;2023-02-15T13:40:15;99182.69;;;40.66;10.32
9474;BME280;8865;47.636;7.692;2023-02-15T13:42:58;99178.09;;;40.76;10.04
9474;BME280;8865;47.636;7.692;2023-02-15T13:48:20;99182.75;;;41.12;10.01
9474;BME280;8865;47.636;7.692;2023-02-15T13:51:10;99170.94;;;41.11;9.90
9474;BME280;8865;47.636;7.692;2023-02-15T14:01:46;99159.31;;;40.92;9.79
9474;BME280;8865;47.636;7.692;2023-02-15T14:04:39;99163.94;;;41.28;9.79
9474;BME280;8865;47.636;7.692;2023-02-15T14:07:33;99157.56;;;41.41;9.73
9474;BME280;8865;47.636;7.692;2023-02-15T14:13:26;99159.19;;;41.42;9.33
9474;BME280;8865;47.636;7.692;2023-02-15T14:16:09;99146.91;;;41.48;9.43
9474;BME280;8865;47.636;7.692;2023-02-15T14:21:34;99163.44;;;41.26;9.45
9474;BME280;8865;47.636;7.692;2023-02-15T14:24:21;99161.28;;;41.36;9.52
9474;BME280;8865;47.636;7.692;2023-02-15T14:27:37;99153.72;;;41.19;9.53
9474;BME280;8865;47.636;7.692;2023-02-15T14:30:27;99156.56;;;41.14;9.63
9474;BME280;8865;47.636;7.692;2023-02-15T14:32:59;99151.31;;;41.27;9.63
9474;BME280;8865;47.636;7.692;2023-02-15T14:35:29;99151.78;;;40.97;9.39
9474;BME280;8865;47.636;7.692;2023-02-15T14:49:25;99154.59;;;38.21;11.11
9474;BME280;8865;47.636;7.692;2023-02-15T14:51:57;99153.13;;;35.31;12.72
9474;BME280;8865;47.636;7.692;2023-02-15T15:02:15;99155.59;;;25.04;21.50
9474;BME280;8865;47.636;7.692;2023-02-15T15:05:08;99154.75;;;23.36;24.37
9474;BME280;8865;47.636;7.692;2023-02-15T15:07:41;99150.00;;;22.22;25.47
9474;BME280;8865;47.636;7.692;2023-02-15T15:12:47;99149.75;;;20.48;28.41
9474;BME280;8865;47.636;7.692;2023-02-15T15:18:01;99151.88;;;19.33;31.54
9474;BME280;8865;47.636;7.692;2023-02-15T15:42:30;99171.31;;;16.54;38.57
9474;BME280;8865;47.636;7.692;2023-02-15T15:50:57;99167.78;;;15.98;40.50
9474;BME280;8865;47.636;7.692;2023-02-15T15:53:26;99175.34;;;15.83;41.94
9474;BME280;8865;47.636;7.692;2023-02-15T15:55:58;99175.75;;;15.69;42.98
9474;BME280;8865;47.636;7.692;2023-02-15T15:58:24;99178.72;;;15.46;42.38
9474;BME280;8865;47.636;7.692;2023-02-15T16:00:54;99177.34;;;15.23;42.80
9474;BME280;8865;47.636;7.692;2023-02-15T16:03:25;99182.22;;;15.17;45.84
9474;BME280;8865;47.636;7.692;2023-02-15T16:05:51;99179.16;;;15.03;46.45
9474;BME280;8865;47.636;7.692;2023-02-15T16:08:32;99183.03;;;14.79;45.94
9474;BME280;8865;47.636;7.692;2023-02-15T16:11:00;99176.44;;;14.63;47.48
9474;BME280;8865;47.636;7.692;2023-02-15T16:13:33;99186.47;;;14.39;47.98
9474;BME280;8865;47.636;7.692;2023-02-15T16:15:59;99191.97;;;14.16;49.54
9474;BME280;8865;47.636;7.692;2023-02-15T16:18:26;99185.78;;;13.96;51.01
9474;BME280;8865;47.636;7.692;2023-02-15T16:21:00;99186.47;;;13.77;53.27
9474;BME280;8865;47.636;7.692;2023-02-15T16:28:54;99200.28;;;13.16;59.05
9474;BME280;8865;47.636;7.692;2023-02-15T16:31:21;99200.00;;;12.98;61.58
9474;BME280;8865;47.636;7.692;2023-02-15T16:33:54;99214.75;;;12.78;64.95
9474;BME280;8865;47.636;7.692;2023-02-15T16:36:26;99210.09;;;12.59;70.16
9474;BME280;8865;47.636;7.692;2023-02-15T16:41:27;99216.44;;;12.22;76.22
9474;BME280;8865;47.636;7.692;2023-02-15T16:43:56;99218.72;;;12.04;79.60
9474;BME280;8865;47.636;7.692;2023-02-15T16:48:55;99230.31;;;11.66;85.43
9474;BME280;8865;47.636;7.692;2023-02-15T16:51:30;99229.28;;;11.44;90.29
9474;BME280;8865;47.636;7.692;2023-02-15T16:54:03;99236.72;;;11.26;92.31